CheckWX is a tool to help pilots better visualize weather data.  It is not intended as a substitute for an official pre-flight weather briefing.

06:10:39 UTC

WSSS METAR
Singapore Changi International Airport
Singapore, Singapore
Current

11 mins ago

WSSS 020600Z 21003KT 090V250 9999 FEW018CB FEW020TCU SCT350 31/24 Q1010 NOSIG
Observed
Jun-2 @ 06:00 UTC
Wind
  • 210° at 3 KTS
Visibility
10,000+ meters
Flight Rules
VFR
Cloud Levels
  • Few at 1,800' AGL
  • Few at 2,000' AGL
  • Scattered at 35,000' AGL
Temperature
31°C / 88°F
Dewpoint
24°C / 75°F
Humidity
66%
Altimeter
29.82" Hg
Pressure
1009.92 hPa
Previous

41 mins ago

WSSS 020530Z VRB03KT 9999 FEW020TCU SCT350 31/24 Q1010 NOSIG
Observed
Jun-2 @ 05:30 UTC
Wind
  • Variable at 3 KTS
Visibility
10,000+ meters
Flight Rules
VFR
Cloud Levels
  • Few at 2,000' AGL
  • Scattered at 35,000' AGL
Temperature
31°C / 88°F
Dewpoint
24°C / 75°F
Humidity
66%
Altimeter
29.82" Hg
Pressure
1009.92 hPa
Previous

1 hour ago

WSSS 020500Z VRB02KT 9999 FEW020TCU SCT350 31/24 Q1010 NOSIG
Observed
Jun-2 @ 05:00 UTC
Wind
  • Variable at 2 KTS
Visibility
10,000+ meters
Flight Rules
VFR
Cloud Levels
  • Few at 2,000' AGL
  • Scattered at 35,000' AGL
Temperature
31°C / 88°F
Dewpoint
24°C / 75°F
Humidity
66%
Altimeter
29.82" Hg
Pressure
1009.92 hPa